Time,TemperatureF,DewpointF,PressureIn,WindDirection,WindDirectionDegrees,WindSpeedMPH,WindSpeedGustMPH,Humidity,HourlyPrecipIn,Conditions,Clouds,dailyrainin,SoftwareType,DateUTC
2013-06-11 00:02:00,63.9,62.8,29.76,WSW,241,0.0,1.0,96,0.00,,,0.41,meteohub,2013-06-11 04:02:00,
2013-06-11 00:07:00,63.7,62.6,29.76,WSW,242,0.0,0.0,96,0.00,,,0.00,meteohub,2013-06-11 04:07:00,
2013-06-11 00:12:00,63.7,62.6,29.76,WSW,242,0.0,0.0,96,0.00,,,0.00,meteohub,2013-06-11 04:12:00,
2013-06-11 00:17:00,63.7,62.8,29.76,WSW,242,0.0,0.0,97,0.00,,,0.00,meteohub,2013-06-11 04:17:00,
2013-06-11 00:22:00,63.9,63.0,29.77,WSW,242,0.0,0.0,97,0.00,,,0.00,meteohub,2013-06-11 04:22:00,
2013-06-11 00:27:00,64.0,63.1,29.76,SSW,200,1.0,1.0,97,0.00,,,0.00,meteohub,2013-06-11 04:27:00,
2013-06-11 00:32:00,64.2,63.3,29.77,SSW,201,0.0,2.0,97,0.00,,,0.00,meteohub,2013-06-11 04:32:00,
2013-06-11 00:42:00,64.0,63.1,29.77,SSW,209,0.0,2.0,97,0.00,,,0.00,meteohub,2013-06-11 04:42:00,
2013-06-11 00:47:00,64.2,63.3,29.77,SSW,208,0.0,1.0,97,0.00,,,0.00,meteohub,2013-06-11 04:47:00,
2013-06-11 00:52:00,64.2,63.3,29.77,SSW,209,0.0,1.0,97,0.00,,,0.00,meteohub,2013-06-11 04:52:00,
2013-06-11 00:57:00,64.2,63.3,29.77,SSW,209,1.0,1.0,97,0.00,,,0.00,meteohub,2013-06-11 04:57:00,
2013-06-11 01:02:00,64.2,63.3,29.77,SSW,208,0.0,1.0,97,0.00,,,0.00,meteohub,2013-06-11 05:02:00,
2013-06-11 01:07:00,64.2,63.3,29.77,SSW,209,0.0,1.0,97,0.00,,,0.00,meteohub,2013-06-11 05:07:00,
2013-06-11 01:12:00,64.2,63.3,29.77,SSW,201,1.0,2.0,97,0.00,,,0.00,meteohub,2013-06-11 05:12:00,
2013-06-11 01:17:00,64.2,63.3,29.77,SSW,200,0.0,2.0,97,0.00,,,0.00,meteohub,2013-06-11 05:17:00,
2013-06-11 01:27:00,64.2,63.3,29.77,South,191,1.0,2.0,97,0.00,,,0.00,meteohub,2013-06-11 05:27:00,
2013-06-11 01:32:00,64.4,63.5,29.77,SSW,196,1.0,2.0,97,0.00,,,0.00,meteohub,2013-06-11 05:32:00,
2013-06-11 01:37:00,64.2,63.3,29.78,SSW,201,0.0,2.0,97,0.00,,,0.00,meteohub,2013-06-11 05:37:00,
2013-06-11 01:42:00,64.0,63.1,29.78,SSW,204,0.0,2.0,97,0.00,,,0.00,meteohub,2013-06-11 05:42:00,
2013-06-11 01:52:00,63.9,63.0,29.78,SSW,205,0.0,1.0,97,0.01,,,0.01,meteohub,2013-06-11 05:52:00,
2013-06-11 02:02:00,63.7,62.8,29.78,SSW,205,0.0,1.0,97,0.01,,,0.01,meteohub,2013-06-11 06:02:00,
2013-06-11 02:12:00,63.9,63.0,29.78,SSW,193,1.0,1.0,97,0.01,,,0.01,meteohub,2013-06-11 06:12:00,
2013-06-11 02:17:00,63.7,62.8,29.78,SSW,197,0.0,1.0,97,0.01,,,0.01,meteohub,2013-06-11 06:17:00,
2013-06-11 02:22:00,63.7,62.8,29.77,SSW,197,0.0,1.0,97,0.01,,,0.01,meteohub,2013-06-11 06:22:00,
2013-06-11 02:27:00,63.5,62.6,29.77,SSW,197,0.0,1.0,97,0.01,,,0.01,meteohub,2013-06-11 06:27:00,
2013-06-11 02:37:00,63.3,62.4,29.77,South,191,1.0,2.0,97,0.01,,,0.01,meteohub,2013-06-11 06:37:00,
2013-06-11 02:42:00,63.1,62.2,29.78,South,190,0.0,2.0,97,0.01,,,0.01,meteohub,2013-06-11 06:42:00,
2013-06-11 02:47:00,63.1,62.2,29.78,SSW,195,0.0,2.0,97,0.01,,,0.01,meteohub,2013-06-11 06:47:00,
2013-06-11 02:52:00,63.1,62.2,29.78,SSW,197,0.0,1.0,97,0.00,,,0.01,meteohub,2013-06-11 06:52:00,
2013-06-11 02:57:00,63.1,62.2,29.78,SSW,203,0.0,0.0,97,0.00,,,0.01,meteohub,2013-06-11 06:57:00,
2013-06-11 03:02:00,63.0,62.1,29.78,SSW,203,1.0,0.0,97,0.00,,,0.01,meteohub,2013-06-11 07:02:00,
2013-06-11 03:07:00,62.8,61.9,29.78,South,191,1.0,2.0,97,0.00,,,0.01,meteohub,2013-06-11 07:07:00,
2013-06-11 03:17:00,62.6,61.7,29.78,SSW,194,0.0,2.0,97,0.00,,,0.01,meteohub,2013-06-11 07:17:00,
2013-06-11 03:22:00,62.6,61.7,29.78,South,191,0.0,2.0,97,0.00,,,0.01,meteohub,2013-06-11 07:22:00,
2013-06-11 03:27:00,62.4,61.5,29.78,South,191,1.0,1.0,97,0.00,,,0.01,meteohub,2013-06-11 07:27:00,
2013-06-11 03:32:00,62.2,61.3,29.78,South,191,1.0,1.0,97,0.00,,,0.01,meteohub,2013-06-11 07:32:00,
2013-06-11 03:42:00,62.1,61.2,29.78,South,191,1.0,1.0,97,0.00,,,0.01,meteohub,2013-06-11 07:42:00,
2013-06-11 03:47:00,61.9,61.0,29.78,South,184,1.0,2.0,97,0.00,,,0.01,meteohub,2013-06-11 07:47:00,
2013-06-11 03:52:00,61.9,61.0,29.78,South,186,1.0,2.0,97,0.00,,,0.01,meteohub,2013-06-11 07:52:00,
2013-06-11 03:57:00,61.9,61.0,29.78,South,186,1.0,2.0,97,0.00,,,0.01,meteohub,2013-06-11 07:57:00,
2013-06-11 04:07:00,61.5,60.6,29.78,South,191,0.0,2.0,97,0.00,,,0.01,meteohub,2013-06-11 08:07:00,
2013-06-11 04:12:00,61.5,60.6,29.78,South,191,0.0,2.0,97,0.00,,,0.01,meteohub,2013-06-11 08:12:00,
2013-06-11 04:17:00,61.5,61.0,29.78,South,190,0.0,2.0,98,0.00,,,0.01,meteohub,2013-06-11 08:17:00,
2013-06-11 04:22:00,61.7,61.2,29.78,South,190,0.0,1.0,98,0.00,,,0.01,meteohub,2013-06-11 08:22:00,
2013-06-11 04:27:00,61.7,61.2,29.78,South,191,0.0,0.0,98,0.00,,,0.01,meteohub,2013-06-11 08:27:00,
2013-06-11 04:32:00,61.5,61.0,29.78,South,191,0.0,0.0,98,0.00,,,0.01,meteohub,2013-06-11 08:32:00,
2013-06-11 04:37:00,61.5,61.0,29.78,South,190,0.0,0.0,98,0.00,,,0.01,meteohub,2013-06-11 08:37:00,
2013-06-11 04:42:00,61.5,61.0,29.79,South,186,0.0,0.0,98,0.00,,,0.01,meteohub,2013-06-11 08:42:00,
2013-06-11 04:47:00,61.3,60.8,29.79,South,191,0.0,1.0,98,0.00,,,0.01,meteohub,2013-06-11 08:47:00,
2013-06-11 04:52:00,61.2,60.3,29.79,South,186,0.0,1.0,97,0.00,,,0.01,meteohub,2013-06-11 08:52:00,
2013-06-11 04:57:00,61.0,60.1,29.79,South,183,0.0,1.0,97,0.00,,,0.01,meteohub,2013-06-11 08:57:00,
2013-06-11 05:02:00,61.0,60.4,29.80,South,190,0.0,1.0,98,0.00,,,0.01,meteohub,2013-06-11 09:02:00,
2013-06-11 05:12:00,61.0,60.4,29.80,South,187,0.0,1.0,98,0.00,,,0.01,meteohub,2013-06-11 09:12:00,
2013-06-11 05:17:00,60.8,60.3,29.80,South,178,0.0,0.0,98,0.00,,,0.01,meteohub,2013-06-11 09:17:00,
2013-06-11 05:22:00,61.0,60.4,29.80,South,172,0.0,0.0,98,0.00,,,0.01,meteohub,2013-06-11 09:22:00,
2013-06-11 05:27:00,60.8,60.3,29.81,South,183,0.0,1.0,98,0.00,,,0.01,meteohub,2013-06-11 09:27:00,
2013-06-11 05:32:00,60.6,60.1,29.81,South,183,0.0,1.0,98,0.00,,,0.01,meteohub,2013-06-11 09:32:00,
2013-06-11 05:37:00,60.6,60.1,29.81,SSW,194,0.0,1.0,98,0.00,,,0.01,meteohub,2013-06-11 09:37:00,
2013-06-11 05:47:00,60.3,59.7,29.81,SSW,194,0.0,0.0,98,0.00,,,0.01,meteohub,2013-06-11 09:47:00,
2013-06-11 05:57:00,60.3,59.7,29.82,SSW,194,0.0,0.0,98,0.00,,,0.01,meteohub,2013-06-11 09:57:00,
2013-06-11 06:07:00,60.1,59.5,29.82,SSW,194,0.0,0.0,98,0.00,,,0.01,meteohub,2013-06-11 10:07:00,
2013-06-11 06:17:00,60.1,59.5,29.82,South,174,0.0,0.0,98,0.00,,,0.01,meteohub,2013-06-11 10:17:00,
2013-06-11 06:22:00,59.9,59.4,29.83,SSE,166,1.0,1.0,98,0.00,,,0.01,meteohub,2013-06-11 10:22:00,
2013-06-11 06:27:00,60.1,59.5,29.82,South,169,0.0,1.0,98,0.00,,,0.01,meteohub,2013-06-11 10:27:00,
2013-06-11 06:32:00,60.1,59.5,29.82,South,169,0.0,1.0,98,0.00,,,0.01,meteohub,2013-06-11 10:32:00,
2013-06-11 06:37:00,60.1,59.5,29.83,South,172,0.0,1.0,98,0.00,,,0.01,meteohub,2013-06-11 10:37:00,
2013-06-11 06:47:00,59.9,59.4,29.83,SSW,196,0.0,0.0,98,0.00,,,0.01,meteohub,2013-06-11 10:47:00,
2013-06-11 06:52:00,60.1,59.5,29.84,SSW,197,0.0,0.0,98,0.00,,,0.01,meteohub,2013-06-11 10:52:00,
2013-06-11 06:57:00,60.3,59.7,29.84,SSW,197,0.0,0.0,98,0.00,,,0.01,meteohub,2013-06-11 10:57:00,
2013-06-11 07:02:00,60.4,59.9,29.84,South,172,0.0,1.0,98,0.00,,,0.01,meteohub,2013-06-11 11:02:00,
2013-06-11 07:12:00,60.6,60.1,29.84,South,178,0.0,1.0,98,0.00,,,0.01,meteohub,2013-06-11 11:12:00,
2013-06-11 07:17:00,60.8,60.3,29.84,South,175,0.0,0.0,98,0.00,,,0.01,meteohub,2013-06-11 11:17:00,
2013-06-11 07:22:00,61.3,60.8,29.85,South,174,0.0,1.0,98,0.00,,,0.01,meteohub,2013-06-11 11:22:00,
2013-06-11 07:27:00,61.3,60.8,29.85,SSE,163,2.0,2.0,98,0.00,,,0.01,meteohub,2013-06-11 11:27:00,
2013-06-11 07:32:00,61.7,61.2,29.85,South,172,0.0,3.0,98,0.00,,,0.01,meteohub,2013-06-11 11:32:00,
2013-06-11 07:42:00,62.8,62.2,29.85,South,172,0.0,3.0,98,0.00,,,0.01,meteohub,2013-06-11 11:42:00,
2013-06-11 07:47:00,63.0,62.4,29.85,South,170,0.0,1.0,98,0.00,,,0.01,meteohub,2013-06-11 11:47:00,
2013-06-11 07:57:00,63.7,63.1,29.85,South,169,0.0,2.0,98,0.00,,,0.01,meteohub,2013-06-11 11:57:00,
2013-06-11 08:07:00,65.3,64.8,29.85,South,169,0.0,1.0,98,0.00,,,0.01,meteohub,2013-06-11 12:07:00,
2013-06-11 08:12:00,66.0,65.5,29.85,SSE,166,1.0,0.0,98,0.00,,,0.01,meteohub,2013-06-11 12:12:00,
2013-06-11 08:22:00,66.7,66.2,29.86,South,169,0.0,2.0,98,0.00,,,0.01,meteohub,2013-06-11 12:22:00,
2013-06-11 08:27:00,68.0,67.5,29.86,South,176,0.0,2.0,98,0.00,,,0.01,meteohub,2013-06-11 12:27:00,
2013-06-11 08:32:00,68.4,67.5,29.86,South,172,0.0,2.0,97,0.00,,,0.01,meteohub,2013-06-11 12:32:00,
2013-06-11 08:37:00,68.7,67.5,29.86,South,169,0.0,0.0,96,0.00,,,0.01,meteohub,2013-06-11 12:37:00,
2013-06-11 08:42:00,69.4,68.0,29.86,South,169,0.0,0.0,95,0.00,,,0.01,meteohub,2013-06-11 12:42:00,
2013-06-11 08:47:00,70.3,68.5,29.86,South,169,1.0,0.0,94,0.00,,,0.01,meteohub,2013-06-11 12:47:00,
2013-06-11 08:52:00,71.2,68.5,29.86,South,169,0.0,1.0,91,0.00,,,0.01,meteohub,2013-06-11 12:52:00,
2013-06-11 08:57:00,71.4,67.1,29.86,WSW,239,2.0,3.0,86,0.00,,,0.01,meteohub,2013-06-11 12:57:00,
2013-06-11 09:02:00,71.4,67.1,29.86,WSW,240,3.0,3.0,86,0.00,,,0.01,meteohub,2013-06-11 13:02:00,
2013-06-11 09:12:00,72.3,67.3,29.86,SW,236,0.0,3.0,84,0.00,,,0.01,meteohub,2013-06-11 13:12:00,
2013-06-11 09:17:00,72.3,66.9,29.86,WSW,238,0.0,3.0,83,0.00,,,0.01,meteohub,2013-06-11 13:17:00,
2013-06-11 09:22:00,72.9,67.8,29.86,WSW,239,1.0,3.0,84,0.00,,,0.01,meteohub,2013-06-11 13:22:00,
2013-06-11 09:32:00,73.8,67.6,29.86,WSW,250,4.0,4.0,81,0.00,,,0.01,meteohub,2013-06-11 13:32:00,
2013-06-11 09:37:00,73.9,67.1,29.86,WSW,243,2.0,5.0,79,0.00,,,0.01,meteohub,2013-06-11 13:37:00,
2013-06-11 09:42:00,74.5,67.5,29.86,WSW,239,1.0,5.0,79,0.00,,,0.01,meteohub,2013-06-11 13:42:00,
2013-06-11 09:47:00,74.8,67.1,29.86,WSW,249,3.0,5.0,77,0.00,,,0.01,meteohub,2013-06-11 13:47:00,
2013-06-11 09:57:00,75.0,67.6,29.86,WSW,250,4.0,6.0,78,0.00,,,0.01,meteohub,2013-06-11 13:57:00,
2013-06-11 10:02:00,75.4,67.3,29.86,WSW,252,4.0,5.0,76,0.00,,,0.01,meteohub,2013-06-11 14:02:00,
2013-06-11 10:07:00,75.7,67.6,29.86,West,259,3.0,8.0,76,0.00,,,0.01,meteohub,2013-06-11 14:07:00,
2013-06-11 10:12:00,75.9,67.1,29.86,WSW,256,2.0,8.0,74,0.00,,,0.01,meteohub,2013-06-11 14:12:00,
2013-06-11 10:17:00,76.1,66.7,29.86,WSW,256,4.0,8.0,73,0.00,,,0.01,meteohub,2013-06-11 14:17:00,
2013-06-11 10:27:00,76.5,67.1,29.86,WSW,257,2.0,6.0,73,0.00,,,0.01,meteohub,2013-06-11 14:27:00,
2013-06-11 10:32:00,77.0,67.6,29.86,West,266,1.0,6.0,73,0.00,,,0.01,meteohub,2013-06-11 14:32:00,
2013-06-11 10:37:00,77.4,67.3,29.85,WSW,257,6.0,6.0,71,0.00,,,0.01,meteohub,2013-06-11 14:37:00,
2013-06-11 10:42:00,77.2,67.1,29.86,WSW,252,2.0,6.0,71,0.00,,,0.01,meteohub,2013-06-11 14:42:00,
2013-06-11 10:52:00,77.7,68.0,29.86,WSW,250,2.0,7.0,72,0.00,,,0.01,meteohub,2013-06-11 14:52:00,
2013-06-11 10:57:00,78.1,67.8,29.86,WNW,287,2.0,6.0,71,0.00,,,0.01,meteohub,2013-06-11 14:57:00,
2013-06-11 11:07:00,78.6,68.0,29.86,WNW,284,3.0,7.0,70,0.00,,,0.01,meteohub,2013-06-11 15:07:00,
2013-06-11 11:12:00,79.0,68.0,29.86,NW,307,6.0,6.0,69,0.00,,,0.01,meteohub,2013-06-11 15:12:00,
2013-06-11 11:17:00,78.6,65.8,29.85,NNW,329,4.0,9.0,65,0.00,,,0.01,meteohub,2013-06-11 15:17:00,
2013-06-11 11:27:00,78.6,65.5,29.86,WSW,255,5.0,11.0,64,0.00,,,0.01,meteohub,2013-06-11 15:27:00,
2013-06-11 11:32:00,79.0,64.8,29.86,West,274,4.0,11.0,62,0.00,,,0.01,meteohub,2013-06-11 15:32:00,
2013-06-11 11:37:00,79.5,67.1,29.86,West,275,3.0,11.0,66,0.00,,,0.01,meteohub,2013-06-11 15:37:00,
2013-06-11 11:42:00,79.7,65.5,29.86,NW,307,5.0,10.0,62,0.00,,,0.01,meteohub,2013-06-11 15:42:00,
2013-06-11 11:47:00,79.7,66.0,29.86,West,259,4.0,11.0,63,0.00,,,0.01,meteohub,2013-06-11 15:47:00,
2013-06-11 11:57:00,79.9,65.7,29.86,WNW,293,3.0,11.0,62,0.00,,,0.01,meteohub,2013-06-11 15:57:00,
2013-06-11 12:07:00,80.2,64.6,29.86,West,276,3.0,12.0,59,0.00,,,0.01,meteohub,2013-06-11 16:07:00,
2013-06-11 12:12:00,80.1,64.4,29.86,West,274,5.0,12.0,59,0.00,,,0.01,meteohub,2013-06-11 16:12:00,
2013-06-11 12:17:00,80.2,64.6,29.86,WSW,257,7.0,11.0,59,0.00,,,0.01,meteohub,2013-06-11 16:17:00,
2013-06-11 12:22:00,80.4,63.9,29.86,West,268,2.0,11.0,57,0.00,,,0.01,meteohub,2013-06-11 16:22:00,
2013-06-11 12:32:00,81.0,63.3,29.86,West,274,6.0,11.0,55,0.00,,,0.01,meteohub,2013-06-11 16:32:00,
2013-06-11 12:37:00,81.3,64.6,29.86,SW,225,7.0,11.0,57,0.00,,,0.01,meteohub,2013-06-11 16:37:00,
2013-06-11 12:42:00,81.1,64.0,29.86,WSW,253,5.0,11.0,56,0.00,,,0.01,meteohub,2013-06-11 16:42:00,
2013-06-11 12:47:00,81.3,63.1,29.86,West,275,3.0,11.0,54,0.00,,,0.01,meteohub,2013-06-11 16:47:00,
2013-06-11 12:52:00,81.7,63.9,29.85,WNW,282,2.0,12.0,55,0.00,,,0.01,meteohub,2013-06-11 16:52:00,
2013-06-11 12:57:00,81.7,63.9,29.85,NW,311,3.0,12.0,55,0.00,,,0.01,meteohub,2013-06-11 16:57:00,
2013-06-11 13:07:00,81.9,64.0,29.85,WSW,257,6.0,8.0,55,0.00,,,0.01,meteohub,2013-06-11 17:07:00,
2013-06-11 13:12:00,82.6,62.1,29.85,NW,306,4.0,8.0,50,0.00,,,0.01,meteohub,2013-06-11 17:12:00,
2013-06-11 13:17:00,82.6,64.8,29.85,SW,233,3.0,8.0,55,0.00,,,0.01,meteohub,2013-06-11 17:17:00,
2013-06-11 13:22:00,82.4,63.0,29.84,SW,215,7.0,8.0,52,0.00,,,0.01,meteohub,2013-06-11 17:22:00,
2013-06-11 13:32:00,82.4,65.7,29.84,NW,322,4.0,8.0,57,0.00,,,0.01,meteohub,2013-06-11 17:32:00,
2013-06-11 13:37:00,82.8,66.0,29.84,NNW,338,3.0,7.0,57,0.00,,,0.01,meteohub,2013-06-11 17:37:00,
2013-06-11 13:42:00,82.8,64.4,29.84,West,267,7.0,7.0,54,0.00,,,0.01,meteohub,2013-06-11 17:42:00,
2013-06-11 13:47:00,82.8,63.3,29.85,SSW,210,4.0,7.0,52,0.00,,,0.01,meteohub,2013-06-11 17:47:00,
2013-06-11 13:52:00,83.3,63.3,29.85,WNW,287,2.0,8.0,51,0.00,,,0.01,meteohub,2013-06-11 17:52:00,
2013-06-11 13:57:00,83.5,64.6,29.84,West,274,1.0,8.0,53,0.00,,,0.01,meteohub,2013-06-11 17:57:00,
2013-06-11 14:02:00,83.7,63.7,29.84,NW,306,5.0,7.0,51,0.00,,,0.01,meteohub,2013-06-11 18:02:00,
2013-06-11 14:12:00,83.1,65.3,29.84,West,269,7.0,10.0,55,0.00,,,0.01,meteohub,2013-06-11 18:12:00,
2013-06-11 15:17:00,83.8,64.9,29.82,SW,226,9.0,9.0,53,0.00,,,0.01,meteohub,2013-06-11 19:17:00,
2013-06-11 15:27:00,85.1,66.6,29.82,South,179,2.0,10.0,54,0.00,,,0.01,meteohub,2013-06-11 19:27:00,
2013-06-11 15:57:00,84.4,65.8,29.81,SW,218,3.0,11.0,54,0.00,,,0.01,meteohub,2013-06-11 19:57:00,
2013-06-11 16:07:00,84.9,64.2,29.80,West,266,3.0,9.0,50,0.00,,,0.01,meteohub,2013-06-11 20:07:00,
2013-06-11 16:12:00,84.6,64.9,29.80,SW,217,6.0,9.0,52,0.00,,,0.01,meteohub,2013-06-11 20:12:00,
2013-06-11 16:17:00,84.9,64.8,29.80,West,262,2.0,12.0,51,0.00,,,0.01,meteohub,2013-06-11 20:17:00,
2013-06-11 16:22:00,85.3,66.7,29.80,West,275,11.0,12.0,54,0.00,,,0.01,meteohub,2013-06-11 20:22:00,
2013-06-11 16:27:00,84.7,65.7,29.80,SW,225,5.0,11.0,53,0.00,,,0.01,meteohub,2013-06-11 20:27:00,
2013-06-11 16:37:00,85.3,66.7,29.80,WSW,255,2.0,11.0,54,0.00,,,0.01,meteohub,2013-06-11 20:37:00,
2013-06-11 16:42:00,85.1,65.5,29.79,WSW,252,7.0,10.0,52,0.00,,,0.01,meteohub,2013-06-11 20:42:00,
2013-06-11 16:47:00,84.7,65.1,29.79,SE,137,5.0,9.0,52,0.00,,,0.01,meteohub,2013-06-11 20:47:00,
2013-06-11 16:52:00,85.1,64.9,29.79,SSW,208,6.0,9.0,51,0.00,,,0.01,meteohub,2013-06-11 20:52:00,
2013-06-11 17:02:00,85.3,64.6,29.79,SW,228,2.0,13.0,50,0.00,,,0.01,meteohub,2013-06-11 21:02:00,
2013-06-11 17:12:00,85.8,65.7,29.79,West,266,5.0,12.0,51,0.00,,,0.01,meteohub,2013-06-11 21:12:00,
2013-06-11 17:17:00,85.6,66.0,29.78,West,281,4.0,11.0,52,0.00,,,0.01,meteohub,2013-06-11 21:17:00,
2013-06-11 17:22:00,85.6,66.0,29.78,SSE,163,5.0,8.0,52,0.00,,,0.01,meteohub,2013-06-11 21:22:00,
2013-06-11 17:27:00,85.6,66.0,29.78,SW,232,1.0,10.0,52,0.00,,,0.01,meteohub,2013-06-11 21:27:00,
2013-06-11 17:37:00,85.8,66.2,29.78,SSE,168,4.0,13.0,52,0.00,,,0.01,meteohub,2013-06-11 21:37:00,
2013-06-11 17:42:00,85.6,67.1,29.78,WNW,294,4.0,13.0,54,0.00,,,0.01,meteohub,2013-06-11 21:42:00,
2013-06-11 17:47:00,85.6,66.0,29.78,SSE,155,2.0,15.0,52,0.00,,,0.01,meteohub,2013-06-11 21:47:00,
2013-06-11 17:52:00,85.5,65.3,29.78,SSW,212,4.0,15.0,51,0.00,,,0.01,meteohub,2013-06-11 21:52:00,
2013-06-11 17:57:00,85.3,65.7,29.79,SSW,204,7.0,15.0,52,0.00,,,0.01,meteohub,2013-06-11 21:57:00,
2013-06-11 18:02:00,85.3,66.7,29.79,West,263,3.0,12.0,54,0.00,,,0.01,meteohub,2013-06-11 22:02:00,
2013-06-11 18:12:00,84.9,65.3,29.79,SW,233,2.0,12.0,52,0.00,,,0.01,meteohub,2013-06-11 22:12:00,
2013-06-11 18:17:00,84.7,65.7,29.79,West,260,3.0,10.0,53,0.00,,,0.01,meteohub,2013-06-11 22:17:00,
2013-06-11 18:22:00,84.6,64.9,29.80,WSW,240,3.0,6.0,52,0.00,,,0.01,meteohub,2013-06-11 22:22:00,
2013-06-11 18:27:00,84.4,65.8,29.81,West,273,5.0,6.0,54,0.00,,,0.01,meteohub,2013-06-11 22:27:00,
2013-06-11 18:37:00,83.8,68.0,29.81,West,260,3.0,6.0,59,0.00,,,0.01,meteohub,2013-06-11 22:37:00,
2013-06-11 18:47:00,81.7,67.8,29.80,SSE,155,2.0,4.0,63,0.00,,,0.01,meteohub,2013-06-11 22:47:00,
2013-06-11 18:57:00,79.2,68.2,29.79,SSE,160,4.0,5.0,69,0.00,,,0.01,meteohub,2013-06-11 22:57:00,
2013-06-11 19:02:00,78.4,67.5,29.79,SSE,166,4.0,5.0,69,0.00,,,0.01,meteohub,2013-06-11 23:02:00,
2013-06-11 19:07:00,78.1,67.8,29.78,SSE,158,4.0,5.0,71,0.00,,,0.01,meteohub,2013-06-11 23:07:00,
2013-06-11 19:17:00,77.9,67.8,29.78,SSE,167,5.0,6.0,71,0.00,,,0.01,meteohub,2013-06-11 23:17:00,
2013-06-11 19:27:00,76.6,69.3,29.77,South,184,5.0,7.0,78,0.00,,,0.01,meteohub,2013-06-11 23:27:00,
2013-06-11 19:37:00,75.0,69.8,29.78,SSE,151,1.0,7.0,84,0.00,,,0.01,meteohub,2013-06-11 23:37:00,
2013-06-11 19:42:00,74.8,69.3,29.77,SE,133,0.0,5.0,83,0.00,,,0.01,meteohub,2013-06-11 23:42:00,
2013-06-11 19:47:00,75.0,70.2,29.77,SE,129,1.0,4.0,85,0.00,,,0.01,meteohub,2013-06-11 23:47:00,
2013-06-11 19:52:00,75.2,70.7,29.77,SSE,155,0.0,2.0,86,0.00,,,0.01,meteohub,2013-06-11 23:52:00,
2013-06-11 19:57:00,75.4,71.2,29.77,SSE,155,0.0,2.0,87,0.00,,,0.01,meteohub,2013-06-11 23:57:00,
2013-06-11 20:02:00,75.7,71.2,29.77,South,169,0.0,2.0,86,0.00,,,0.01,meteohub,2013-06-12 00:02:00,
2013-06-11 20:07:00,75.7,71.6,29.77,ENE,60,0.0,1.0,87,0.00,,,0.01,meteohub,2013-06-12 00:07:00,
2013-06-11 20:12:00,75.4,70.9,29.77,NE,43,0.0,1.0,86,0.00,,,0.01,meteohub,2013-06-12 00:12:00,
2013-06-11 20:17:00,74.8,71.1,29.77,NNE,19,0.0,1.0,88,0.00,,,0.01,meteohub,2013-06-12 00:17:00,
2013-06-11 20:22:00,74.7,70.9,29.78,NNE,19,0.0,0.0,88,0.00,,,0.01,meteohub,2013-06-12 00:22:00,
2013-06-11 20:32:00,73.9,70.9,29.79,NNE,21,0.0,2.0,90,0.00,,,0.01,meteohub,2013-06-12 00:32:00,
2013-06-11 20:37:00,73.6,70.5,29.79,SE,145,1.0,2.0,90,0.00,,,0.01,meteohub,2013-06-12 00:37:00,
2013-06-11 20:42:00,73.2,70.5,29.79,SSE,156,1.0,2.0,91,0.00,,,0.01,meteohub,2013-06-12 00:42:00,
2013-06-11 20:47:00,73.0,70.3,29.78,SW,228,0.0,1.0,91,0.00,,,0.01,meteohub,2013-06-12 00:47:00,
2013-06-11 20:52:00,73.0,70.3,29.78,SE,146,2.0,2.0,91,0.00,,,0.01,meteohub,2013-06-12 00:52:00,
2013-06-11 20:57:00,73.0,70.5,29.79,SSE,155,1.0,2.0,92,0.00,,,0.01,meteohub,2013-06-12 00:57:00,
2013-06-11 21:02:00,72.7,70.2,29.80,SSE,154,0.0,2.0,92,0.00,,,0.01,meteohub,2013-06-12 01:02:00,
2013-06-11 21:07:00,72.5,70.0,29.81,SSE,157,0.0,2.0,92,0.00,,,0.01,meteohub,2013-06-12 01:07:00,
2013-06-11 21:12:00,72.3,69.8,29.81,SSE,156,2.0,2.0,92,0.00,,,0.01,meteohub,2013-06-12 01:12:00,
2013-06-11 21:17:00,72.1,69.6,29.81,South,183,1.0,2.0,92,0.00,,,0.01,meteohub,2013-06-12 01:17:00,
2013-06-11 21:22:00,72.5,70.7,29.81,SSE,155,0.0,2.0,94,0.00,,,0.01,meteohub,2013-06-12 01:22:00,
2013-06-11 21:27:00,72.1,70.0,29.80,SE,145,0.0,3.0,93,0.00,,,0.01,meteohub,2013-06-12 01:27:00,
2013-06-11 21:32:00,72.0,69.8,29.80,SE,145,0.0,3.0,93,0.00,,,0.01,meteohub,2013-06-12 01:32:00,
2013-06-11 21:37:00,72.0,69.8,29.79,SE,145,0.0,3.0,93,0.00,,,0.01,meteohub,2013-06-12 01:37:00,
2013-06-11 21:42:00,71.8,69.6,29.78,South,174,0.0,3.0,93,0.00,,,0.01,meteohub,2013-06-12 01:42:00,
2013-06-11 21:47:00,71.8,69.6,29.78,SW,217,0.0,3.0,93,0.00,,,0.01,meteohub,2013-06-12 01:47:00,
2013-06-11 21:52:00,72.0,69.4,29.78,SSW,211,0.0,3.0,92,0.00,,,0.01,meteohub,2013-06-12 01:52:00,
2013-06-11 21:57:00,72.7,70.2,29.79,SW,220,0.0,2.0,92,0.00,,,0.01,meteohub,2013-06-12 01:57:00,
2013-06-11 22:02:00,72.9,70.2,29.80,SW,219,3.0,3.0,91,0.00,,,0.01,meteohub,2013-06-12 02:02:00,
2013-06-11 22:07:00,72.3,69.8,29.79,SSW,204,1.0,4.0,92,0.00,,,0.01,meteohub,2013-06-12 02:07:00,
2013-06-11 22:17:00,72.0,69.8,29.80,SSW,212,1.0,4.0,93,0.00,,,0.01,meteohub,2013-06-12 02:17:00,
2013-06-11 22:22:00,71.8,69.3,29.79,SSW,211,0.0,2.0,92,0.00,,,0.01,meteohub,2013-06-12 02:22:00,
2013-06-11 22:32:00,71.6,69.1,29.79,SSW,205,0.0,2.0,92,0.00,,,0.01,meteohub,2013-06-12 02:32:00,
2013-06-11 22:37:00,72.0,70.2,29.80,SSW,192,1.0,1.0,94,0.00,,,0.01,meteohub,2013-06-12 02:37:00,
2013-06-11 22:42:00,71.8,69.6,29.80,SSW,197,0.0,2.0,93,0.00,,,0.01,meteohub,2013-06-12 02:42:00,
2013-06-11 22:52:00,71.2,69.4,29.81,SSW,200,1.0,2.0,94,0.00,,,0.01,meteohub,2013-06-12 02:52:00,
2013-06-11 22:57:00,71.1,69.3,29.80,SSW,203,0.0,1.0,94,0.00,,,0.01,meteohub,2013-06-12 02:57:00,
2013-06-11 23:02:00,70.5,68.4,29.80,SSW,202,0.0,2.0,93,0.00,,,0.01,meteohub,2013-06-12 03:02:00,
2013-06-11 23:07:00,70.9,69.4,29.80,SSW,195,0.0,2.0,95,0.00,,,0.01,meteohub,2013-06-12 03:07:00,
2013-06-11 23:12:00,70.9,69.1,29.80,SSW,196,0.0,3.0,94,0.00,,,0.01,meteohub,2013-06-12 03:12:00,
2013-06-11 23:17:00,70.5,68.7,29.80,SSW,193,1.0,3.0,94,0.00,,,0.01,meteohub,2013-06-12 03:17:00,
2013-06-11 23:22:00,70.5,68.7,29.79,South,191,1.0,3.0,94,0.00,,,0.01,meteohub,2013-06-12 03:22:00,
2013-06-11 23:27:00,70.3,68.9,29.78,SSW,195,0.0,4.0,95,0.00,,,0.01,meteohub,2013-06-12 03:27:00,
2013-06-11 23:32:00,70.2,68.7,29.78,SSW,194,0.0,4.0,95,0.00,,,0.01,meteohub,2013-06-12 03:32:00,
2013-06-11 23:37:00,70.0,68.5,29.78,South,191,1.0,4.0,95,0.00,,,0.01,meteohub,2013-06-12 03:37:00,
2013-06-11 23:42:00,69.8,68.4,29.78,SSW,194,1.0,2.0,95,0.00,,,0.01,meteohub,2013-06-12 03:42:00,
2013-06-11 23:47:00,69.6,68.2,29.78,SSW,197,0.0,2.0,95,0.00,,,0.01,meteohub,2013-06-12 03:47:00,
2013-06-11 23:52:00,69.4,68.0,29.78,SSW,197,0.0,2.0,95,0.00,,,0.01,meteohub,2013-06-12 03:52:00,
2013-06-11 23:57:00,69.4,68.0,29.79,SSW,197,0.0,1.0,95,0.00,,,0.01,meteohub,2013-06-12 03:57:00,